Ludington, MI (49431)

6:25 AM EST on December 10, 2016 (GMT -0500)
Forest Hills | | Change Station
Active Advisory: Winter Weather Advisory

Elev 636 ft 43.96 °N, 86.43 °W | Updated 21 seconds ago

Light Snow
Light Snow
22.7 °F
Feels Like 16 °F
N
5.0
Wind Variable Wind from West

Today
High -- | Low -- °F
--% Chance of Precip.
Yesterday
High -- | Low -- °F
Precip. -- in
Pressure 30.39 in
Visibility 7.0 miles
Clouds Mostly Cloudy 2500 ft
Mostly Cloudy 3200 ft
Overcast 4600 ft
Windchill 16 °F
Dew Point 16 °F
Humidity 76%
Rainfall 0.00 in
Snow Depth Not available.
8:09 AM 5:07 PM
Waxing Gibbous, 83% visible
METAR KLDM 101115Z AUTO 29006G16KT 7SM -SN BKN025 BKN032 OVC046 M05/M09 A3039 RMK AO2 T10471090
Pressure 30.39 in
Visibility 7.0 miles
Clouds Mostly Cloudy 2500 ft
Mostly Cloudy 3200 ft
Overcast 4600 ft
Windchill 16 °F
Dew Point 16 °F
Humidity 76%
Rainfall 0.00 in
Snow Depth Not available.
8:09 AM 5:07 PM
Waxing Gibbous, 83% visible
METAR KLDM 101115Z AUTO 29006G16KT 7SM -SN BKN025 BKN032 OVC046 M05/M09 A3039 RMK AO2 T10471090

10-Day Weather Forecast

Almanac

Astronomy

Dec. 10, 2016 Rise Set
Actual Time
Civil Twilight
Nautical Twilight
Astronomical Twilight
Moon
Length of Visible Light
Length of Day
Tomorrow will be .
, % of the Moon is Illuminated

Today's Extremes

State Highs State Lows

Community

WunderPhotos

Upload Photos

1,956,536 photos uploaded!

WunderBlog® & News

Nearby

Air Quality

  Air Quality AQ Index Pollutant
Not available.

Snow Depth

Station Depth Elevation

Earthquake Activity

City Distance Mag. Time & Date
Minimum magnitude displayed is 2.5.

Coastal Water Temperatures

Place Temperature

Stations

Nearby Weather Stations

Station Location Temp. Windchill Dew Point Humidity Wind Precip. Elev Updated Type
                   

Watches & Warnings

Winter Weather Advisory
Issued: 3:42 AM EST Dec. 10, 2016 – National Weather Service

... Winter Weather Advisory in effect from 10 PM this evening to
4 am EST Monday...

The National Weather Service in Grand Rapids has issued a Winter
Weather Advisory... which is in effect from 10 PM this evening to
4 am EST Monday.

Hazardous weather...

* steady snow will develop this evening and continue through
   early Monday morning.

* Heaviest snow will fall Sunday.

* Total accumulations 5 to 8 inches. Locally higher amounts
   possible.

Impacts...

* roads will become snow packed and hazardous.

* Commuting times will be increased.



Precautionary/preparedness actions...

* the Michigan Department of Transportation reminds motorists
   to adjust speeds based on the conditions... and to take it
   slow in ice and snow.

* Weather preparedness information is available on line at
   www.Ready.Gov/winter.